sensor_id;sensor_type;location;lat;lon;timestamp;P1;durP1;ratioP1;P2;durP2;ratioP2
3036;SDS011;1528;52.550;13.408;2024-03-02T00:01:48;62.33;;;56.70;;
3036;SDS011;1528;52.550;13.408;2024-03-02T00:04:34;65.60;;;59.30;;
3036;SDS011;1528;52.550;13.408;2024-03-02T00:07:19;67.27;;;60.50;;
3036;SDS011;1528;52.550;13.408;2024-03-02T00:10:07;63.23;;;57.17;;
3036;SDS011;1528;52.550;13.408;2024-03-02T00:12:54;66.73;;;61.00;;
3036;SDS011;1528;52.550;13.408;2024-03-02T00:15:41;66.57;;;60.50;;
3036;SDS011;1528;52.550;13.408;2024-03-02T00:18:32;67.77;;;61.57;;
3036;SDS011;1528;52.550;13.408;2024-03-02T00:21:19;65.93;;;59.73;;
3036;SDS011;1528;52.550;13.408;2024-03-02T00:24:07;65.53;;;59.67;;
3036;SDS011;1528;52.550;13.408;2024-03-02T00:27:05;67.43;;;60.70;;
3036;SDS011;1528;52.550;13.408;2024-03-02T00:29:55;67.37;;;61.00;;
3036;SDS011;1528;52.550;13.408;2024-03-02T00:32:40;68.97;;;62.57;;
3036;SDS011;1528;52.550;13.408;2024-03-02T00:35:28;70.40;;;63.57;;
3036;SDS011;1528;52.550;13.408;2024-03-02T00:38:14;71.17;;;64.37;;
3036;SDS011;1528;52.550;13.408;2024-03-02T00:41:02;69.37;;;63.07;;
3036;SDS011;1528;52.550;13.408;2024-03-02T00:43:58;67.03;;;60.90;;
3036;SDS011;1528;52.550;13.408;2024-03-02T00:46:44;74.70;;;68.03;;
3036;SDS011;1528;52.550;13.408;2024-03-02T00:49:30;69.97;;;63.60;;
3036;SDS011;1528;52.550;13.408;2024-03-02T00:52:15;66.93;;;60.40;;
3036;SDS011;1528;52.550;13.408;2024-03-02T00:55:01;69.70;;;63.20;;
3036;SDS011;1528;52.550;13.408;2024-03-02T00:57:49;68.83;;;62.37;;
3036;SDS011;1528;52.550;13.408;2024-03-02T01:00:36;66.00;;;60.00;;
3036;SDS011;1528;52.550;13.408;2024-03-02T01:03:21;71.27;;;64.83;;
3036;SDS011;1528;52.550;13.408;2024-03-02T01:06:07;69.73;;;63.53;;
3036;SDS011;1528;52.550;13.408;2024-03-02T01:08:53;73.70;;;67.33;;
3036;SDS011;1528;52.550;13.408;2024-03-02T01:11:38;72.17;;;64.83;;
3036;SDS011;1528;52.550;13.408;2024-03-02T01:14:24;70.03;;;63.63;;
3036;SDS011;1528;52.550;13.408;2024-03-02T01:17:11;66.83;;;60.80;;
3036;SDS011;1528;52.550;13.408;2024-03-02T01:19:57;67.77;;;61.67;;
3036;SDS011;1528;52.550;13.408;2024-03-02T01:22:43;68.57;;;62.10;;
3036;SDS011;1528;52.550;13.408;2024-03-02T01:25:29;66.00;;;59.67;;
3036;SDS011;1528;52.550;13.408;2024-03-02T01:28:14;62.77;;;56.70;;
3036;SDS011;1528;52.550;13.408;2024-03-02T01:31:00;68.57;;;62.20;;
3036;SDS011;1528;52.550;13.408;2024-03-02T01:33:47;67.70;;;60.80;;
3036;SDS011;1528;52.550;13.408;2024-03-02T01:36:32;67.27;;;61.03;;
3036;SDS011;1528;52.550;13.408;2024-03-02T01:39:18;69.73;;;63.23;;
3036;SDS011;1528;52.550;13.408;2024-03-02T01:42:04;67.40;;;61.23;;
3036;SDS011;1528;52.550;13.408;2024-03-02T01:44:49;70.83;;;64.13;;
3036;SDS011;1528;52.550;13.408;2024-03-02T01:47:35;67.17;;;60.50;;
3036;SDS011;1528;52.550;13.408;2024-03-02T01:50:26;65.87;;;59.90;;
3036;SDS011;1528;52.550;13.408;2024-03-02T01:53:12;66.70;;;60.47;;
3036;SDS011;1528;52.550;13.408;2024-03-02T01:55:58;70.17;;;63.83;;
3036;SDS011;1528;52.550;13.408;2024-03-02T01:58:43;68.10;;;62.30;;
3036;SDS011;1528;52.550;13.408;2024-03-02T02:01:29;69.13;;;62.93;;
3036;SDS011;1528;52.550;13.408;2024-03-02T02:04:15;68.17;;;61.60;;
3036;SDS011;1528;52.550;13.408;2024-03-02T02:07:02;65.90;;;59.73;;
3036;SDS011;1528;52.550;13.408;2024-03-02T02:09:47;66.83;;;60.70;;
3036;SDS011;1528;52.550;13.408;2024-03-02T02:12:33;66.10;;;59.93;;
3036;SDS011;1528;52.550;13.408;2024-03-02T02:15:25;62.83;;;57.07;;
3036;SDS011;1528;52.550;13.408;2024-03-02T02:18:12;65.07;;;58.83;;
3036;SDS011;1528;52.550;13.408;2024-03-02T02:20:57;64.70;;;59.07;;
3036;SDS011;1528;52.550;13.408;2024-03-02T02:23:44;66.40;;;60.90;;
3036;SDS011;1528;52.550;13.408;2024-03-02T02:26:32;68.87;;;62.17;;
3036;SDS011;1528;52.550;13.408;2024-03-02T02:29:17;67.20;;;60.80;;
3036;SDS011;1528;52.550;13.408;2024-03-02T02:32:03;65.50;;;59.30;;
3036;SDS011;1528;52.550;13.408;2024-03-02T02:34:51;67.63;;;61.23;;
3036;SDS011;1528;52.550;13.408;2024-03-02T02:37:37;75.47;;;68.07;;
3036;SDS011;1528;52.550;13.408;2024-03-02T02:40:25;73.73;;;67.03;;
3036;SDS011;1528;52.550;13.408;2024-03-02T02:43:11;69.10;;;62.57;;
3036;SDS011;1528;52.550;13.408;2024-03-02T02:45:56;71.57;;;65.27;;
3036;SDS011;1528;52.550;13.408;2024-03-02T02:48:42;66.37;;;60.30;;
3036;SDS011;1528;52.550;13.408;2024-03-02T02:51:28;70.40;;;64.13;;
3036;SDS011;1528;52.550;13.408;2024-03-02T02:54:13;66.60;;;61.10;;
3036;SDS011;1528;52.550;13.408;2024-03-02T02:57:01;65.63;;;59.70;;
3036;SDS011;1528;52.550;13.408;2024-03-02T02:59:46;67.50;;;61.33;;
3036;SDS011;1528;52.550;13.408;2024-03-02T03:02:31;64.10;;;58.40;;
3036;SDS011;1528;52.550;13.408;2024-03-02T03:05:17;66.33;;;60.43;;
3036;SDS011;1528;52.550;13.408;2024-03-02T03:08:04;63.60;;;57.90;;
3036;SDS011;1528;52.550;13.408;2024-03-02T03:10:49;67.07;;;61.00;;
3036;SDS011;1528;52.550;13.408;2024-03-02T03:13:36;64.87;;;59.33;;
3036;SDS011;1528;52.550;13.408;2024-03-02T03:16:22;66.80;;;60.87;;
3036;SDS011;1528;52.550;13.408;2024-03-02T03:19:08;66.17;;;59.57;;
3036;SDS011;1528;52.550;13.408;2024-03-02T03:21:53;68.07;;;61.80;;
3036;SDS011;1528;52.550;13.408;2024-03-02T03:24:39;64.13;;;58.43;;
3036;SDS011;1528;52.550;13.408;2024-03-02T03:27:24;62.27;;;56.83;;
3036;SDS011;1528;52.550;13.408;2024-03-02T03:30:12;62.20;;;56.53;;
3036;SDS011;1528;52.550;13.408;2024-03-02T03:32:57;64.50;;;59.03;;
3036;SDS011;1528;52.550;13.408;2024-03-02T03:35:43;60.07;;;54.47;;
3036;SDS011;1528;52.550;13.408;2024-03-02T03:38:29;61.83;;;55.90;;
3036;SDS011;1528;52.550;13.408;2024-03-02T03:41:15;59.83;;;54.53;;
3036;SDS011;1528;52.550;13.408;2024-03-02T03:44:00;59.67;;;54.47;;
3036;SDS011;1528;52.550;13.408;2024-03-02T03:46:48;58.50;;;53.20;;
3036;SDS011;1528;52.550;13.408;2024-03-02T03:49:33;62.83;;;56.63;;
3036;SDS011;1528;52.550;13.408;2024-03-02T03:52:19;60.60;;;55.10;;
3036;SDS011;1528;52.550;13.408;2024-03-02T03:55:05;59.83;;;54.67;;
3036;SDS011;1528;52.550;13.408;2024-03-02T03:57:50;62.83;;;57.47;;
3036;SDS011;1528;52.550;13.408;2024-03-02T04:00:36;63.17;;;57.47;;
3036;SDS011;1528;52.550;13.408;2024-03-02T04:03:23;55.23;;;50.40;;
3036;SDS011;1528;52.550;13.408;2024-03-02T04:06:09;60.53;;;55.33;;
3036;SDS011;1528;52.550;13.408;2024-03-02T04:08:54;60.90;;;55.60;;
3036;SDS011;1528;52.550;13.408;2024-03-02T04:11:40;58.47;;;53.30;;
3036;SDS011;1528;52.550;13.408;2024-03-02T04:14:26;56.27;;;51.43;;
3036;SDS011;1528;52.550;13.408;2024-03-02T04:17:11;61.00;;;55.83;;
3036;SDS011;1528;52.550;13.408;2024-03-02T04:19:58;57.57;;;52.10;;
3036;SDS011;1528;52.550;13.408;2024-03-02T04:22:44;53.20;;;48.67;;
3036;SDS011;1528;52.550;13.408;2024-03-02T04:25:29;54.27;;;49.57;;
3036;SDS011;1528;52.550;13.408;2024-03-02T04:28:15;54.77;;;50.10;;
3036;SDS011;1528;52.550;13.408;2024-03-02T04:31:01;58.77;;;53.60;;
3036;SDS011;1528;52.550;13.408;2024-03-02T04:33:46;54.57;;;49.47;;
3036;SDS011;1528;52.550;13.408;2024-03-02T04:36:33;53.17;;;48.13;;
3036;SDS011;1528;52.550;13.408;2024-03-02T04:39:19;53.80;;;49.20;;
3036;SDS011;1528;52.550;13.408;2024-03-02T04:42:04;54.43;;;49.27;;
3036;SDS011;1528;52.550;13.408;2024-03-02T04:44:50;52.87;;;48.27;;
3036;SDS011;1528;52.550;13.408;2024-03-02T04:47:36;54.80;;;50.03;;
3036;SDS011;1528;52.550;13.408;2024-03-02T04:50:21;51.47;;;47.07;;
3036;SDS011;1528;52.550;13.408;2024-03-02T04:53:08;52.93;;;48.30;;
3036;SDS011;1528;52.550;13.408;2024-03-02T04:55:53;52.63;;;48.10;;
3036;SDS011;1528;52.550;13.408;2024-03-02T04:58:57;52.57;;;48.10;;
3036;SDS011;1528;52.550;13.408;2024-03-02T05:01:42;53.47;;;48.73;;
3036;SDS011;1528;52.550;13.408;2024-03-02T05:04:28;54.90;;;50.17;;
3036;SDS011;1528;52.550;13.408;2024-03-02T05:07:14;55.13;;;50.33;;
3036;SDS011;1528;52.550;13.408;2024-03-02T05:10:01;53.60;;;49.13;;
3036;SDS011;1528;52.550;13.408;2024-03-02T05:12:46;58.97;;;54.07;;
3036;SDS011;1528;52.550;13.408;2024-03-02T05:15:40;55.30;;;50.43;;
3036;SDS011;1528;52.550;13.408;2024-03-02T05:18:27;55.87;;;51.03;;
3036;SDS011;1528;52.550;13.408;2024-03-02T05:21:12;58.47;;;53.60;;
3036;SDS011;1528;52.550;13.408;2024-03-02T05:23:58;57.20;;;52.40;;
3036;SDS011;1528;52.550;13.408;2024-03-02T05:26:45;55.53;;;50.70;;
3036;SDS011;1528;52.550;13.408;2024-03-02T05:29:30;57.40;;;52.47;;
3036;SDS011;1528;52.550;13.408;2024-03-02T05:32:16;57.07;;;51.77;;
3036;SDS011;1528;52.550;13.408;2024-03-02T05:35:02;57.00;;;52.03;;
3036;SDS011;1528;52.550;13.408;2024-03-02T05:37:48;55.17;;;50.40;;
3036;SDS011;1528;52.550;13.408;2024-03-02T05:40:34;53.87;;;49.37;;
3036;SDS011;1528;52.550;13.408;2024-03-02T05:43:21;58.70;;;53.57;;
3036;SDS011;1528;52.550;13.408;2024-03-02T05:46:07;57.27;;;52.57;;
3036;SDS011;1528;52.550;13.408;2024-03-02T05:48:52;57.97;;;52.97;;
3036;SDS011;1528;52.550;13.408;2024-03-02T05:51:38;60.80;;;55.50;;
3036;SDS011;1528;52.550;13.408;2024-03-02T05:54:23;55.90;;;50.70;;
3036;SDS011;1528;52.550;13.408;2024-03-02T05:57:09;60.87;;;55.77;;
3036;SDS011;1528;52.550;13.408;2024-03-02T06:00:19;60.00;;;54.90;;
3036;SDS011;1528;52.550;13.408;2024-03-02T06:03:04;59.90;;;54.70;;
3036;SDS011;1528;52.550;13.408;2024-03-02T06:05:51;57.97;;;52.70;;
3036;SDS011;1528;52.550;13.408;2024-03-02T06:08:37;60.23;;;54.93;;
3036;SDS011;1528;52.550;13.408;2024-03-02T06:11:23;60.33;;;55.23;;
3036;SDS011;1528;52.550;13.408;2024-03-02T06:14:09;61.40;;;56.50;;
3036;SDS011;1528;52.550;13.408;2024-03-02T06:16:56;60.53;;;54.70;;
3036;SDS011;1528;52.550;13.408;2024-03-02T06:19:43;63.90;;;58.60;;
3036;SDS011;1528;52.550;13.408;2024-03-02T06:22:28;63.37;;;57.57;;
3036;SDS011;1528;52.550;13.408;2024-03-02T06:25:14;61.97;;;56.67;;
3036;SDS011;1528;52.550;13.408;2024-03-02T06:28:00;63.47;;;57.83;;
3036;SDS011;1528;52.550;13.408;2024-03-02T06:30:46;63.03;;;57.57;;
3036;SDS011;1528;52.550;13.408;2024-03-02T06:33:33;61.80;;;56.20;;
3036;SDS011;1528;52.550;13.408;2024-03-02T06:36:19;61.70;;;55.80;;
3036;SDS011;1528;52.550;13.408;2024-03-02T06:39:04;69.30;;;62.13;;
3036;SDS011;1528;52.550;13.408;2024-03-02T06:41:50;65.43;;;59.20;;
3036;SDS011;1528;52.550;13.408;2024-03-02T06:44:36;64.10;;;58.30;;
3036;SDS011;1528;52.550;13.408;2024-03-02T06:47:21;64.93;;;59.23;;
3036;SDS011;1528;52.550;13.408;2024-03-02T06:50:09;60.00;;;54.27;;
3036;SDS011;1528;52.550;13.408;2024-03-02T06:52:54;58.93;;;53.50;;
3036;SDS011;1528;52.550;13.408;2024-03-02T06:55:40;62.13;;;56.50;;
3036;SDS011;1528;52.550;13.408;2024-03-02T06:58:26;63.27;;;57.70;;
3036;SDS011;1528;52.550;13.408;2024-03-02T07:01:12;65.23;;;59.67;;
3036;SDS011;1528;52.550;13.408;2024-03-02T07:03:58;64.33;;;58.43;;
3036;SDS011;1528;52.550;13.408;2024-03-02T07:06:45;64.60;;;59.07;;
3036;SDS011;1528;52.550;13.408;2024-03-02T07:09:31;60.60;;;55.10;;
3036;SDS011;1528;52.550;13.408;2024-03-02T07:12:16;57.47;;;52.00;;
3036;SDS011;1528;52.550;13.408;2024-03-02T07:15:02;62.90;;;56.80;;
3036;SDS011;1528;52.550;13.408;2024-03-02T07:18:05;60.07;;;54.57;;
3036;SDS011;1528;52.550;13.408;2024-03-02T07:20:57;59.80;;;53.97;;
3036;SDS011;1528;52.550;13.408;2024-03-02T07:23:47;61.17;;;55.27;;
3036;SDS011;1528;52.550;13.408;2024-03-02T07:26:34;57.60;;;52.37;;
3036;SDS011;1528;52.550;13.408;2024-03-02T07:29:20;58.37;;;52.83;;
3036;SDS011;1528;52.550;13.408;2024-03-02T07:32:06;57.90;;;52.30;;
3036;SDS011;1528;52.550;13.408;2024-03-02T07:34:52;58.80;;;53.40;;
3036;SDS011;1528;52.550;13.408;2024-03-02T07:37:38;61.57;;;56.00;;
3036;SDS011;1528;52.550;13.408;2024-03-02T07:40:31;61.60;;;55.83;;
3036;SDS011;1528;52.550;13.408;2024-03-02T07:43:16;59.60;;;53.80;;
3036;SDS011;1528;52.550;13.408;2024-03-02T07:46:03;61.23;;;56.03;;
3036;SDS011;1528;52.550;13.408;2024-03-02T07:48:52;58.63;;;53.33;;
3036;SDS011;1528;52.550;13.408;2024-03-02T07:51:40;61.30;;;55.60;;
3036;SDS011;1528;52.550;13.408;2024-03-02T07:54:26;64.00;;;58.33;;
3036;SDS011;1528;52.550;13.408;2024-03-02T07:57:13;63.47;;;57.77;;
3036;SDS011;1528;52.550;13.408;2024-03-02T07:59:58;58.57;;;53.07;;
3036;SDS011;1528;52.550;13.408;2024-03-02T08:02:44;61.60;;;56.00;;
3036;SDS011;1528;52.550;13.408;2024-03-02T08:05:30;62.27;;;56.60;;
3036;SDS011;1528;52.550;13.408;2024-03-02T08:08:16;58.30;;;53.10;;
3036;SDS011;1528;52.550;13.408;2024-03-02T08:11:02;57.37;;;51.80;;
3036;SDS011;1528;52.550;13.408;2024-03-02T08:13:49;58.70;;;53.40;;
3036;SDS011;1528;52.550;13.408;2024-03-02T08:16:38;54.60;;;50.07;;
3036;SDS011;1528;52.550;13.408;2024-03-02T08:19:27;55.57;;;50.73;;
3036;SDS011;1528;52.550;13.408;2024-03-02T08:22:13;58.83;;;53.30;;
3036;SDS011;1528;52.550;13.408;2024-03-02T08:24:59;55.60;;;50.30;;
3036;SDS011;1528;52.550;13.408;2024-03-02T08:27:50;54.93;;;49.77;;
3036;SDS011;1528;52.550;13.408;2024-03-02T08:30:37;57.27;;;51.83;;
3036;SDS011;1528;52.550;13.408;2024-03-02T08:33:28;54.63;;;49.43;;
3036;SDS011;1528;52.550;13.408;2024-03-02T08:36:14;58.77;;;53.47;;
3036;SDS011;1528;52.550;13.408;2024-03-02T08:39:00;55.40;;;50.40;;
3036;SDS011;1528;52.550;13.408;2024-03-02T08:41:47;56.37;;;51.13;;
3036;SDS011;1528;52.550;13.408;2024-03-02T08:44:33;57.77;;;52.80;;
3036;SDS011;1528;52.550;13.408;2024-03-02T08:47:22;56.50;;;51.43;;
3036;SDS011;1528;52.550;13.408;2024-03-02T08:50:08;57.33;;;52.20;;
3036;SDS011;1528;52.550;13.408;2024-03-02T08:52:57;52.70;;;47.70;;
3036;SDS011;1528;52.550;13.408;2024-03-02T08:55:42;56.37;;;51.50;;
3036;SDS011;1528;52.550;13.408;2024-03-02T08:58:28;52.03;;;47.50;;
3036;SDS011;1528;52.550;13.408;2024-03-02T09:01:18;53.50;;;48.80;;
3036;SDS011;1528;52.550;13.408;2024-03-02T09:04:17;58.43;;;53.20;;
3036;SDS011;1528;52.550;13.408;2024-03-02T09:07:14;53.13;;;48.43;;
3036;SDS011;1528;52.550;13.408;2024-03-02T09:10:23;54.40;;;49.33;;
3036;SDS011;1528;52.550;13.408;2024-03-02T09:13:10;55.10;;;50.07;;
3036;SDS011;1528;52.550;13.408;2024-03-02T09:16:40;54.83;;;49.70;;
3036;SDS011;1528;52.550;13.408;2024-03-02T09:19:48;53.73;;;49.20;;
3036;SDS011;1528;52.550;13.408;2024-03-02T09:22:49;56.77;;;51.97;;
3036;SDS011;1528;52.550;13.408;2024-03-02T09:25:46;56.43;;;51.37;;
3036;SDS011;1528;52.550;13.408;2024-03-02T09:28:39;52.20;;;47.70;;
3036;SDS011;1528;52.550;13.408;2024-03-02T09:31:40;54.83;;;49.90;;
3036;SDS011;1528;52.550;13.408;2024-03-02T09:34:27;56.63;;;51.63;;
3036;SDS011;1528;52.550;13.408;2024-03-02T09:37:16;56.13;;;51.10;;
3036;SDS011;1528;52.550;13.408;2024-03-02T09:40:11;54.10;;;49.30;;
3036;SDS011;1528;52.550;13.408;2024-03-02T09:43:24;53.30;;;48.60;;
3036;SDS011;1528;52.550;13.408;2024-03-02T09:46:30;54.73;;;50.13;;
3036;SDS011;1528;52.550;13.408;2024-03-02T09:49:21;54.87;;;50.07;;
3036;SDS011;1528;52.550;13.408;2024-03-02T09:52:14;53.37;;;48.87;;
3036;SDS011;1528;52.550;13.408;2024-03-02T09:55:10;55.97;;;51.37;;
3036;SDS011;1528;52.550;13.408;2024-03-02T09:58:05;55.43;;;50.53;;
3036;SDS011;1528;52.550;13.408;2024-03-02T10:00:56;51.57;;;47.27;;
3036;SDS011;1528;52.550;13.408;2024-03-02T10:03:45;55.33;;;51.10;;
3036;SDS011;1528;52.550;13.408;2024-03-02T10:06:41;50.50;;;46.37;;
3036;SDS011;1528;52.550;13.408;2024-03-02T10:09:32;48.80;;;44.70;;
3036;SDS011;1528;52.550;13.408;2024-03-02T10:12:18;52.43;;;48.23;;
3036;SDS011;1528;52.550;13.408;2024-03-02T10:15:04;47.97;;;44.33;;
3036;SDS011;1528;52.550;13.408;2024-03-02T10:17:51;49.80;;;45.87;;
3036;SDS011;1528;52.550;13.408;2024-03-02T10:20:37;51.83;;;47.40;;
3036;SDS011;1528;52.550;13.408;2024-03-02T10:23:22;48.27;;;44.47;;
3036;SDS011;1528;52.550;13.408;2024-03-02T10:26:11;45.73;;;42.03;;
3036;SDS011;1528;52.550;13.408;2024-03-02T10:29:02;50.90;;;46.87;;
3036;SDS011;1528;52.550;13.408;2024-03-02T10:31:47;47.10;;;43.30;;
3036;SDS011;1528;52.550;13.408;2024-03-02T10:34:33;45.23;;;41.73;;
3036;SDS011;1528;52.550;13.408;2024-03-02T10:37:20;44.17;;;40.73;;
3036;SDS011;1528;52.550;13.408;2024-03-02T10:40:07;45.70;;;42.37;;
3036;SDS011;1528;52.550;13.408;2024-03-02T10:42:56;41.33;;;38.20;;
3036;SDS011;1528;52.550;13.408;2024-03-02T10:45:43;40.73;;;37.30;;
3036;SDS011;1528;52.550;13.408;2024-03-02T10:48:31;42.20;;;38.80;;
3036;SDS011;1528;52.550;13.408;2024-03-02T10:51:20;42.90;;;39.60;;
3036;SDS011;1528;52.550;13.408;2024-03-02T10:54:05;39.43;;;36.60;;
3036;SDS011;1528;52.550;13.408;2024-03-02T10:56:51;40.47;;;36.93;;
3036;SDS011;1528;52.550;13.408;2024-03-02T10:59:41;43.60;;;40.70;;
3036;SDS011;1528;52.550;13.408;2024-03-02T11:02:36;37.40;;;34.70;;
3036;SDS011;1528;52.550;13.408;2024-03-02T11:05:26;37.87;;;34.93;;
3036;SDS011;1528;52.550;13.408;2024-03-02T11:08:13;37.63;;;34.67;;
3036;SDS011;1528;52.550;13.408;2024-03-02T11:11:06;35.43;;;32.73;;
3036;SDS011;1528;52.550;13.408;2024-03-02T11:13:57;37.00;;;34.20;;
3036;SDS011;1528;52.550;13.408;2024-03-02T11:16:53;37.80;;;34.90;;
3036;SDS011;1528;52.550;13.408;2024-03-02T11:19:39;32.80;;;30.43;;
3036;SDS011;1528;52.550;13.408;2024-03-02T11:22:25;33.50;;;30.87;;
3036;SDS011;1528;52.550;13.408;2024-03-02T11:25:22;35.13;;;32.50;;
3036;SDS011;1528;52.550;13.408;2024-03-02T11:28:08;33.90;;;31.50;;
3036;SDS011;1528;52.550;13.408;2024-03-02T11:30:54;34.43;;;31.63;;
3036;SDS011;1528;52.550;13.408;2024-03-02T11:33:41;33.23;;;30.90;;
3036;SDS011;1528;52.550;13.408;2024-03-02T11:36:27;35.60;;;32.90;;
3036;SDS011;1528;52.550;13.408;2024-03-02T11:39:12;35.83;;;33.13;;
3036;SDS011;1528;52.550;13.408;2024-03-02T11:41:59;35.37;;;32.77;;
3036;SDS011;1528;52.550;13.408;2024-03-02T11:44:47;35.87;;;33.17;;
3036;SDS011;1528;52.550;13.408;2024-03-02T11:47:34;31.53;;;29.13;;
3036;SDS011;1528;52.550;13.408;2024-03-02T11:50:29;33.53;;;30.80;;
3036;SDS011;1528;52.550;13.408;2024-03-02T11:53:15;34.40;;;31.70;;
3036;SDS011;1528;52.550;13.408;2024-03-02T11:56:02;33.07;;;30.53;;
3036;SDS011;1528;52.550;13.408;2024-03-02T11:58:49;33.03;;;30.63;;
3036;SDS011;1528;52.550;13.408;2024-03-02T12:01:39;38.23;;;35.53;;
3036;SDS011;1528;52.550;13.408;2024-03-02T12:04:24;36.30;;;33.60;;
3036;SDS011;1528;52.550;13.408;2024-03-02T12:07:12;35.57;;;32.60;;
3036;SDS011;1528;52.550;13.408;2024-03-02T12:10:03;33.93;;;31.43;;
3036;SDS011;1528;52.550;13.408;2024-03-02T12:12:54;34.93;;;32.43;;
3036;SDS011;1528;52.550;13.408;2024-03-02T12:15:41;33.93;;;31.37;;
3036;SDS011;1528;52.550;13.408;2024-03-02T12:18:28;34.87;;;32.30;;
3036;SDS011;1528;52.550;13.408;2024-03-02T12:21:13;33.10;;;30.67;;
3036;SDS011;1528;52.550;13.408;2024-03-02T12:24:00;34.00;;;31.60;;
3036;SDS011;1528;52.550;13.408;2024-03-02T12:26:47;31.47;;;29.00;;
3036;SDS011;1528;52.550;13.408;2024-03-02T12:29:33;32.70;;;30.20;;
3036;SDS011;1528;52.550;13.408;2024-03-02T12:32:19;34.33;;;31.70;;
3036;SDS011;1528;52.550;13.408;2024-03-02T12:35:05;30.77;;;28.23;;
3036;SDS011;1528;52.550;13.408;2024-03-02T12:37:52;32.57;;;30.37;;
3036;SDS011;1528;52.550;13.408;2024-03-02T12:40:40;35.87;;;33.07;;
3036;SDS011;1528;52.550;13.408;2024-03-02T12:43:29;33.80;;;31.20;;
3036;SDS011;1528;52.550;13.408;2024-03-02T12:46:15;31.73;;;29.47;;
3036;SDS011;1528;52.550;13.408;2024-03-02T12:49:05;33.83;;;31.30;;
3036;SDS011;1528;52.550;13.408;2024-03-02T12:51:53;32.23;;;29.83;;
3036;SDS011;1528;52.550;13.408;2024-03-02T12:54:39;31.87;;;29.77;;
3036;SDS011;1528;52.550;13.408;2024-03-02T12:57:29;32.63;;;30.17;;
3036;SDS011;1528;52.550;13.408;2024-03-02T13:00:17;33.63;;;31.13;;
3036;SDS011;1528;52.550;13.408;2024-03-02T13:03:03;34.13;;;31.60;;
3036;SDS011;1528;52.550;13.408;2024-03-02T13:05:49;34.57;;;31.97;;
3036;SDS011;1528;52.550;13.408;2024-03-02T13:08:34;33.03;;;30.93;;
3036;SDS011;1528;52.550;13.408;2024-03-02T13:11:20;35.83;;;33.23;;
3036;SDS011;1528;52.550;13.408;2024-03-02T13:14:08;31.70;;;28.90;;
3036;SDS011;1528;52.550;13.408;2024-03-02T13:16:55;29.93;;;27.73;;
3036;SDS011;1528;52.550;13.408;2024-03-02T13:19:50;33.77;;;31.47;;
3036;SDS011;1528;52.550;13.408;2024-03-02T13:22:37;32.90;;;30.70;;
3036;SDS011;1528;52.550;13.408;2024-03-02T13:25:23;32.90;;;30.27;;
3036;SDS011;1528;52.550;13.408;2024-03-02T13:28:08;33.43;;;31.13;;
3036;SDS011;1528;52.550;13.408;2024-03-02T13:30:59;31.07;;;28.77;;
3036;SDS011;1528;52.550;13.408;2024-03-02T13:33:44;30.20;;;28.20;;
3036;SDS011;1528;52.550;13.408;2024-03-02T13:36:30;29.10;;;27.37;;
3036;SDS011;1528;52.550;13.408;2024-03-02T13:39:16;32.03;;;30.13;;
3036;SDS011;1528;52.550;13.408;2024-03-02T13:42:02;33.90;;;31.57;;
3036;SDS011;1528;52.550;13.408;2024-03-02T13:44:50;30.07;;;28.07;;
3036;SDS011;1528;52.550;13.408;2024-03-02T13:47:37;30.67;;;28.47;;
3036;SDS011;1528;52.550;13.408;2024-03-02T13:50:23;30.07;;;28.17;;
3036;SDS011;1528;52.550;13.408;2024-03-02T13:53:09;27.13;;;25.50;;
3036;SDS011;1528;52.550;13.408;2024-03-02T13:55:54;34.37;;;32.10;;
3036;SDS011;1528;52.550;13.408;2024-03-02T13:58:40;34.03;;;31.63;;
3036;SDS011;1528;52.550;13.408;2024-03-02T14:01:26;35.47;;;32.90;;
3036;SDS011;1528;52.550;13.408;2024-03-02T14:04:13;32.17;;;29.87;;
3036;SDS011;1528;52.550;13.408;2024-03-02T14:06:59;30.73;;;28.60;;
3036;SDS011;1528;52.550;13.408;2024-03-02T14:09:45;32.27;;;30.27;;
3036;SDS011;1528;52.550;13.408;2024-03-02T14:12:31;29.67;;;27.87;;
3036;SDS011;1528;52.550;13.408;2024-03-02T14:15:17;28.50;;;26.70;;
3036;SDS011;1528;52.550;13.408;2024-03-02T14:18:02;30.67;;;28.60;;
3036;SDS011;1528;52.550;13.408;2024-03-02T14:20:50;30.03;;;27.93;;
3036;SDS011;1528;52.550;13.408;2024-03-02T14:23:36;29.70;;;27.60;;
3036;SDS011;1528;52.550;13.408;2024-03-02T14:26:21;30.47;;;28.33;;
3036;SDS011;1528;52.550;13.408;2024-03-02T14:29:07;27.47;;;25.60;;
3036;SDS011;1528;52.550;13.408;2024-03-02T14:31:53;28.90;;;27.00;;
3036;SDS011;1528;52.550;13.408;2024-03-02T14:34:39;29.93;;;28.13;;
3036;SDS011;1528;52.550;13.408;2024-03-02T14:37:26;30.87;;;28.77;;
3036;SDS011;1528;52.550;13.408;2024-03-02T14:40:11;31.73;;;29.73;;
3036;SDS011;1528;52.550;13.408;2024-03-02T14:42:57;26.70;;;25.00;;
3036;SDS011;1528;52.550;13.408;2024-03-02T14:45:43;25.63;;;24.13;;
3036;SDS011;1528;52.550;13.408;2024-03-02T14:48:28;23.13;;;21.73;;
3036;SDS011;1528;52.550;13.408;2024-03-02T14:51:14;25.43;;;23.80;;
3036;SDS011;1528;52.550;13.408;2024-03-02T14:54:01;26.10;;;24.47;;
3036;SDS011;1528;52.550;13.408;2024-03-02T14:56:47;27.20;;;25.43;;
3036;SDS011;1528;52.550;13.408;2024-03-02T14:59:33;24.53;;;23.03;;
3036;SDS011;1528;52.550;13.408;2024-03-02T15:02:18;24.57;;;22.87;;
3036;SDS011;1528;52.550;13.408;2024-03-02T15:05:04;25.27;;;23.77;;
3036;SDS011;1528;52.550;13.408;2024-03-02T15:07:50;25.03;;;23.40;;
3036;SDS011;1528;52.550;13.408;2024-03-02T15:10:37;24.20;;;22.60;;
3036;SDS011;1528;52.550;13.408;2024-03-02T15:13:22;22.87;;;21.27;;
3036;SDS011;1528;52.550;13.408;2024-03-02T15:16:09;25.80;;;23.90;;
3036;SDS011;1528;52.550;13.408;2024-03-02T15:18:55;28.43;;;26.47;;
3036;SDS011;1528;52.550;13.408;2024-03-02T15:21:40;25.03;;;23.20;;
3036;SDS011;1528;52.550;13.408;2024-03-02T15:24:26;24.80;;;22.90;;
3036;SDS011;1528;52.550;13.408;2024-03-02T15:27:13;24.53;;;23.03;;
3036;SDS011;1528;52.550;13.408;2024-03-02T15:29:58;27.17;;;25.27;;
3036;SDS011;1528;52.550;13.408;2024-03-02T15:32:44;21.30;;;19.80;;
3036;SDS011;1528;52.550;13.408;2024-03-02T15:35:30;24.50;;;22.80;;
3036;SDS011;1528;52.550;13.408;2024-03-02T15:38:15;21.50;;;20.10;;
3036;SDS011;1528;52.550;13.408;2024-03-02T15:41:01;22.73;;;21.10;;
3036;SDS011;1528;52.550;13.408;2024-03-02T15:43:48;21.40;;;20.00;;
3036;SDS011;1528;52.550;13.408;2024-03-02T15:46:33;22.80;;;21.20;;
3036;SDS011;1528;52.550;13.408;2024-03-02T15:49:19;23.00;;;21.40;;
3036;SDS011;1528;52.550;13.408;2024-03-02T15:52:04;19.87;;;18.57;;
3036;SDS011;1528;52.550;13.408;2024-03-02T15:54:50;20.03;;;18.77;;
3036;SDS011;1528;52.550;13.408;2024-03-02T15:57:36;23.27;;;21.97;;
3036;SDS011;1528;52.550;13.408;2024-03-02T16:00:23;18.33;;;17.03;;
3036;SDS011;1528;52.550;13.408;2024-03-02T16:03:08;19.70;;;18.30;;
3036;SDS011;1528;52.550;13.408;2024-03-02T16:05:53;18.67;;;17.37;;
3036;SDS011;1528;52.550;13.408;2024-03-02T16:08:39;21.17;;;19.70;;
3036;SDS011;1528;52.550;13.408;2024-03-02T16:11:25;22.63;;;21.13;;
3036;SDS011;1528;52.550;13.408;2024-03-02T16:14:11;20.73;;;19.23;;
3036;SDS011;1528;52.550;13.408;2024-03-02T16:16:59;20.03;;;18.63;;
3036;SDS011;1528;52.550;13.408;2024-03-02T16:19:44;18.60;;;17.30;;
3036;SDS011;1528;52.550;13.408;2024-03-02T16:22:31;20.00;;;18.50;;
3036;SDS011;1528;52.550;13.408;2024-03-02T16:25:16;20.17;;;18.67;;
3036;SDS011;1528;52.550;13.408;2024-03-02T16:28:02;19.13;;;17.93;;
3036;SDS011;1528;52.550;13.408;2024-03-02T16:30:48;19.87;;;18.37;;
3036;SDS011;1528;52.550;13.408;2024-03-02T16:33:35;20.67;;;19.27;;